sensor_id;sensor_type;location;lat;lon;timestamp;temperature;humidity
20712;DHT22;10517;50.742;4.224;2024-02-15T00:00:37;13.20;99.90
20712;DHT22;10517;50.742;4.224;2024-02-15T00:03:03;13.20;99.90
20712;DHT22;10517;50.742;4.224;2024-02-15T00:05:32;13.30;99.90
20712;DHT22;10517;50.742;4.224;2024-02-15T00:07:58;13.40;99.90
20712;DHT22;10517;50.742;4.224;2024-02-15T00:10:23;13.40;99.90
20712;DHT22;10517;50.742;4.224;2024-02-15T00:12:50;13.40;99.90
20712;DHT22;10517;50.742;4.224;2024-02-15T00:15:16;13.40;99.90
20712;DHT22;10517;50.742;4.224;2024-02-15T00:17:42;13.40;99.90
20712;DHT22;10517;50.742;4.224;2024-02-15T00:20:08;13.50;99.90
20712;DHT22;10517;50.742;4.224;2024-02-15T00:22:36;13.40;99.90
20712;DHT22;10517;50.742;4.224;2024-02-15T00:25:02;13.40;99.90
20712;DHT22;10517;50.742;4.224;2024-02-15T00:27:28;13.40;99.90
20712;DHT22;10517;50.742;4.224;2024-02-15T00:29:53;13.40;99.90
20712;DHT22;10517;50.742;4.224;2024-02-15T00:32:19;13.40;99.90
20712;DHT22;10517;50.742;4.224;2024-02-15T00:34:44;13.40;99.90
20712;DHT22;10517;50.742;4.224;2024-02-15T00:37:10;13.50;99.90
20712;DHT22;10517;50.742;4.224;2024-02-15T00:39:35;13.40;99.90
20712;DHT22;10517;50.742;4.224;2024-02-15T00:42:01;13.30;99.90
20712;DHT22;10517;50.742;4.224;2024-02-15T00:44:27;13.30;99.90
20712;DHT22;10517;50.742;4.224;2024-02-15T00:46:52;13.30;99.90
20712;DHT22;10517;50.742;4.224;2024-02-15T00:49:18;13.30;99.90
20712;DHT22;10517;50.742;4.224;2024-02-15T00:51:47;13.20;99.90
20712;DHT22;10517;50.742;4.224;2024-02-15T00:54:13;13.20;99.90
20712;DHT22;10517;50.742;4.224;2024-02-15T00:56:39;13.20;99.90
20712;DHT22;10517;50.742;4.224;2024-02-15T00:59:05;13.10;99.90
20712;DHT22;10517;50.742;4.224;2024-02-15T01:01:31;13.20;99.90
20712;DHT22;10517;50.742;4.224;2024-02-15T01:03:56;13.20;99.90
20712;DHT22;10517;50.742;4.224;2024-02-15T01:06:22;13.00;99.90
20712;DHT22;10517;50.742;4.224;2024-02-15T01:08:48;13.00;99.90
20712;DHT22;10517;50.742;4.224;2024-02-15T01:11:14;12.90;99.90
20712;DHT22;10517;50.742;4.224;2024-02-15T01:13:40;12.90;99.90
20712;DHT22;10517;50.742;4.224;2024-02-15T01:16:06;13.00;99.90
20712;DHT22;10517;50.742;4.224;2024-02-15T01:18:32;13.00;99.90
20712;DHT22;10517;50.742;4.224;2024-02-15T01:20:58;13.20;99.90
20712;DHT22;10517;50.742;4.224;2024-02-15T01:23:24;13.20;99.90
20712;DHT22;10517;50.742;4.224;2024-02-15T01:25:49;13.30;99.90
20712;DHT22;10517;50.742;4.224;2024-02-15T01:28:15;13.30;99.90
20712;DHT22;10517;50.742;4.224;2024-02-15T01:30:41;13.20;99.90
20712;DHT22;10517;50.742;4.224;2024-02-15T01:33:09;13.20;99.90
20712;DHT22;10517;50.742;4.224;2024-02-15T01:35:36;13.20;99.90
20712;DHT22;10517;50.742;4.224;2024-02-15T01:38:02;13.20;99.90
20712;DHT22;10517;50.742;4.224;2024-02-15T01:40:27;13.20;99.90
20712;DHT22;10517;50.742;4.224;2024-02-15T01:42:53;13.20;99.90
20712;DHT22;10517;50.742;4.224;2024-02-15T01:45:19;13.20;99.90
20712;DHT22;10517;50.742;4.224;2024-02-15T01:47:45;13.20;99.90
20712;DHT22;10517;50.742;4.224;2024-02-15T01:50:12;13.20;99.90
20712;DHT22;10517;50.742;4.224;2024-02-15T01:52:39;13.20;99.90
20712;DHT22;10517;50.742;4.224;2024-02-15T01:55:06;13.20;99.90
20712;DHT22;10517;50.742;4.224;2024-02-15T01:57:38;13.30;99.90
20712;DHT22;10517;50.742;4.224;2024-02-15T02:00:05;13.30;99.90
20712;DHT22;10517;50.742;4.224;2024-02-15T02:02:33;13.20;99.90
20712;DHT22;10517;50.742;4.224;2024-02-15T02:04:59;13.20;99.90
20712;DHT22;10517;50.742;4.224;2024-02-15T02:07:25;13.20;99.90
20712;DHT22;10517;50.742;4.224;2024-02-15T02:09:51;13.20;99.90
20712;DHT22;10517;50.742;4.224;2024-02-15T02:12:17;13.20;99.90
20712;DHT22;10517;50.742;4.224;2024-02-15T02:14:43;13.20;99.90
20712;DHT22;10517;50.742;4.224;2024-02-15T02:17:15;13.20;99.90
20712;DHT22;10517;50.742;4.224;2024-02-15T02:19:41;13.20;99.90
20712;DHT22;10517;50.742;4.224;2024-02-15T02:22:09;13.20;99.90
20712;DHT22;10517;50.742;4.224;2024-02-15T02:24:40;13.10;99.90
20712;DHT22;10517;50.742;4.224;2024-02-15T02:27:12;13.20;99.90
20712;DHT22;10517;50.742;4.224;2024-02-15T02:29:43;13.20;99.90
20712;DHT22;10517;50.742;4.224;2024-02-15T02:32:11;13.20;99.90
20712;DHT22;10517;50.742;4.224;2024-02-15T02:34:36;13.20;99.90
20712;DHT22;10517;50.742;4.224;2024-02-15T02:37:02;13.20;99.90
20712;DHT22;10517;50.742;4.224;2024-02-15T02:39:31;13.30;99.90
20712;DHT22;10517;50.742;4.224;2024-02-15T02:41:57;13.30;99.90
20712;DHT22;10517;50.742;4.224;2024-02-15T02:44:23;13.30;99.90
20712;DHT22;10517;50.742;4.224;2024-02-15T02:46:49;13.20;99.90
20712;DHT22;10517;50.742;4.224;2024-02-15T02:49:14;13.20;99.90
20712;DHT22;10517;50.742;4.224;2024-02-15T02:51:40;13.20;99.90
20712;DHT22;10517;50.742;4.224;2024-02-15T02:54:05;13.20;99.90
20712;DHT22;10517;50.742;4.224;2024-02-15T02:56:32;13.20;99.90
20712;DHT22;10517;50.742;4.224;2024-02-15T02:58:58;13.20;99.90
20712;DHT22;10517;50.742;4.224;2024-02-15T03:01:24;13.20;99.90
20712;DHT22;10517;50.742;4.224;2024-02-15T03:03:53;13.10;99.90
20712;DHT22;10517;50.742;4.224;2024-02-15T03:06:21;13.00;99.90
20712;DHT22;10517;50.742;4.224;2024-02-15T03:08:47;13.00;99.90
20712;DHT22;10517;50.742;4.224;2024-02-15T03:11:13;13.00;99.90
20712;DHT22;10517;50.742;4.224;2024-02-15T03:13:39;13.00;99.90
20712;DHT22;10517;50.742;4.224;2024-02-15T03:16:05;13.00;99.90
20712;DHT22;10517;50.742;4.224;2024-02-15T03:18:31;13.00;99.90
20712;DHT22;10517;50.742;4.224;2024-02-15T03:20:58;13.00;99.90
20712;DHT22;10517;50.742;4.224;2024-02-15T03:23:24;13.00;99.90
20712;DHT22;10517;50.742;4.224;2024-02-15T03:25:49;13.00;99.90
20712;DHT22;10517;50.742;4.224;2024-02-15T03:28:15;13.00;99.90
20712;DHT22;10517;50.742;4.224;2024-02-15T03:30:42;13.00;99.90
20712;DHT22;10517;50.742;4.224;2024-02-15T03:33:08;13.00;99.90
20712;DHT22;10517;50.742;4.224;2024-02-15T03:35:34;13.00;99.90
20712;DHT22;10517;50.742;4.224;2024-02-15T03:38:00;13.10;99.90
20712;DHT22;10517;50.742;4.224;2024-02-15T03:40:26;13.10;99.90
20712;DHT22;10517;50.742;4.224;2024-02-15T03:42:53;13.10;99.90
20712;DHT22;10517;50.742;4.224;2024-02-15T03:45:19;13.10;99.90
20712;DHT22;10517;50.742;4.224;2024-02-15T03:47:44;13.10;99.90
20712;DHT22;10517;50.742;4.224;2024-02-15T03:50:11;13.20;99.90
20712;DHT22;10517;50.742;4.224;2024-02-15T03:52:40;13.20;99.90
20712;DHT22;10517;50.742;4.224;2024-02-15T03:55:06;13.30;99.90
20712;DHT22;10517;50.742;4.224;2024-02-15T03:57:38;13.30;99.90
20712;DHT22;10517;50.742;4.224;2024-02-15T04:00:06;13.30;99.90
20712;DHT22;10517;50.742;4.224;2024-02-15T04:02:33;13.20;99.90
20712;DHT22;10517;50.742;4.224;2024-02-15T04:05:00;13.20;99.90
20712;DHT22;10517;50.742;4.224;2024-02-15T04:07:26;13.20;99.90
20712;DHT22;10517;50.742;4.224;2024-02-15T04:09:52;13.10;99.90
20712;DHT22;10517;50.742;4.224;2024-02-15T04:12:18;13.20;99.90
20712;DHT22;10517;50.742;4.224;2024-02-15T04:14:44;13.10;99.90
20712;DHT22;10517;50.742;4.224;2024-02-15T04:17:13;13.10;99.90
20712;DHT22;10517;50.742;4.224;2024-02-15T04:19:41;13.00;99.90
20712;DHT22;10517;50.742;4.224;2024-02-15T04:22:06;13.10;99.90
20712;DHT22;10517;50.742;4.224;2024-02-15T04:24:36;13.10;99.90
20712;DHT22;10517;50.742;4.224;2024-02-15T04:27:05;13.10;99.90
20712;DHT22;10517;50.742;4.224;2024-02-15T04:29:33;13.10;99.90
20712;DHT22;10517;50.742;4.224;2024-02-15T04:31:58;13.10;99.90
20712;DHT22;10517;50.742;4.224;2024-02-15T04:34:24;13.10;99.90
20712;DHT22;10517;50.742;4.224;2024-02-15T04:36:50;13.10;99.90
20712;DHT22;10517;50.742;4.224;2024-02-15T04:39:17;13.20;99.90
20712;DHT22;10517;50.742;4.224;2024-02-15T04:41:51;13.10;99.90
20712;DHT22;10517;50.742;4.224;2024-02-15T04:44:17;13.20;99.90
20712;DHT22;10517;50.742;4.224;2024-02-15T04:46:48;13.10;99.90
20712;DHT22;10517;50.742;4.224;2024-02-15T04:49:15;13.10;99.90
20712;DHT22;10517;50.742;4.224;2024-02-15T04:51:40;13.10;99.90
20712;DHT22;10517;50.742;4.224;2024-02-15T04:54:07;13.10;99.90
20712;DHT22;10517;50.742;4.224;2024-02-15T04:56:33;13.00;99.90
20712;DHT22;10517;50.742;4.224;2024-02-15T04:59:00;13.00;99.90
20712;DHT22;10517;50.742;4.224;2024-02-15T05:01:25;13.00;99.90
20712;DHT22;10517;50.742;4.224;2024-02-15T05:03:51;13.10;99.90
20712;DHT22;10517;50.742;4.224;2024-02-15T05:06:16;13.10;99.90
20712;DHT22;10517;50.742;4.224;2024-02-15T05:08:42;13.10;99.90
20712;DHT22;10517;50.742;4.224;2024-02-15T05:11:11;13.10;99.90
20712;DHT22;10517;50.742;4.224;2024-02-15T05:13:45;13.20;99.90
20712;DHT22;10517;50.742;4.224;2024-02-15T05:16:11;13.20;99.90
20712;DHT22;10517;50.742;4.224;2024-02-15T05:18:37;13.20;99.90
20712;DHT22;10517;50.742;4.224;2024-02-15T05:21:06;13.30;99.90
20712;DHT22;10517;50.742;4.224;2024-02-15T05:23:35;13.30;99.90
20712;DHT22;10517;50.742;4.224;2024-02-15T05:26:00;13.30;99.90
20712;DHT22;10517;50.742;4.224;2024-02-15T05:28:26;13.40;99.90
20712;DHT22;10517;50.742;4.224;2024-02-15T05:31:14;13.40;99.90
20712;DHT22;10517;50.742;4.224;2024-02-15T05:33:43;13.30;99.90
20712;DHT22;10517;50.742;4.224;2024-02-15T05:36:16;13.20;99.90
20712;DHT22;10517;50.742;4.224;2024-02-15T05:38:44;13.20;99.90
20712;DHT22;10517;50.742;4.224;2024-02-15T05:41:10;13.20;99.90
20712;DHT22;10517;50.742;4.224;2024-02-15T05:43:37;13.20;99.90
20712;DHT22;10517;50.742;4.224;2024-02-15T05:46:04;13.20;99.90
20712;DHT22;10517;50.742;4.224;2024-02-15T05:48:30;13.20;99.90
20712;DHT22;10517;50.742;4.224;2024-02-15T05:50:56;13.10;99.90
20712;DHT22;10517;50.742;4.224;2024-02-15T05:53:23;13.10;99.90
20712;DHT22;10517;50.742;4.224;2024-02-15T05:55:49;13.20;99.90
20712;DHT22;10517;50.742;4.224;2024-02-15T05:58:15;13.30;99.90
20712;DHT22;10517;50.742;4.224;2024-02-15T06:00:42;13.20;99.90
20712;DHT22;10517;50.742;4.224;2024-02-15T06:03:12;13.30;99.90
20712;DHT22;10517;50.742;4.224;2024-02-15T06:05:38;13.30;99.90
20712;DHT22;10517;50.742;4.224;2024-02-15T06:08:05;13.40;99.90
20712;DHT22;10517;50.742;4.224;2024-02-15T06:10:31;13.40;99.90
20712;DHT22;10517;50.742;4.224;2024-02-15T06:12:57;13.40;99.90
20712;DHT22;10517;50.742;4.224;2024-02-15T06:15:24;13.40;99.90
20712;DHT22;10517;50.742;4.224;2024-02-15T06:17:50;13.40;99.90
20712;DHT22;10517;50.742;4.224;2024-02-15T06:20:16;13.30;99.90
20712;DHT22;10517;50.742;4.224;2024-02-15T06:22:46;13.30;99.90
20712;DHT22;10517;50.742;4.224;2024-02-15T06:25:12;13.30;99.90
20712;DHT22;10517;50.742;4.224;2024-02-15T06:27:38;13.20;99.90
20712;DHT22;10517;50.742;4.224;2024-02-15T06:30:08;13.20;99.90
20712;DHT22;10517;50.742;4.224;2024-02-15T06:32:52;13.30;99.90
20712;DHT22;10517;50.742;4.224;2024-02-15T06:35:37;13.30;99.90
20712;DHT22;10517;50.742;4.224;2024-02-15T06:38:21;13.30;99.90
20712;DHT22;10517;50.742;4.224;2024-02-15T06:41:05;13.30;99.90
20712;DHT22;10517;50.742;4.224;2024-02-15T06:43:30;13.30;99.90
20712;DHT22;10517;50.742;4.224;2024-02-15T06:45:56;13.40;99.90
20712;DHT22;10517;50.742;4.224;2024-02-15T06:48:21;13.40;99.90
20712;DHT22;10517;50.742;4.224;2024-02-15T06:50:50;13.40;99.90
20712;DHT22;10517;50.742;4.224;2024-02-15T06:53:16;13.40;99.90
20712;DHT22;10517;50.742;4.224;2024-02-15T06:55:41;13.30;99.90
20712;DHT22;10517;50.742;4.224;2024-02-15T06:58:07;13.30;99.90
20712;DHT22;10517;50.742;4.224;2024-02-15T07:00:33;13.30;99.90
20712;DHT22;10517;50.742;4.224;2024-02-15T07:02:59;13.30;99.90
20712;DHT22;10517;50.742;4.224;2024-02-15T07:05:24;13.30;99.90
20712;DHT22;10517;50.742;4.224;2024-02-15T07:07:53;13.40;99.90
20712;DHT22;10517;50.742;4.224;2024-02-15T07:10:20;13.30;99.90
20712;DHT22;10517;50.742;4.224;2024-02-15T07:12:46;13.30;99.90
20712;DHT22;10517;50.742;4.224;2024-02-15T07:15:12;13.30;99.90
20712;DHT22;10517;50.742;4.224;2024-02-15T07:17:37;13.40;99.90
20712;DHT22;10517;50.742;4.224;2024-02-15T07:20:04;13.40;99.90
20712;DHT22;10517;50.742;4.224;2024-02-15T07:22:33;13.50;99.90
20712;DHT22;10517;50.742;4.224;2024-02-15T07:24:58;13.40;99.90
20712;DHT22;10517;50.742;4.224;2024-02-15T07:27:24;13.40;99.90
20712;DHT22;10517;50.742;4.224;2024-02-15T07:29:51;13.50;99.90
20712;DHT22;10517;50.742;4.224;2024-02-15T07:32:17;13.60;99.90
20712;DHT22;10517;50.742;4.224;2024-02-15T07:34:43;13.50;99.90
20712;DHT22;10517;50.742;4.224;2024-02-15T07:37:13;13.50;99.90
20712;DHT22;10517;50.742;4.224;2024-02-15T07:39:41;13.60;99.90
20712;DHT22;10517;50.742;4.224;2024-02-15T07:42:06;13.60;99.90
20712;DHT22;10517;50.742;4.224;2024-02-15T07:44:34;13.70;99.90
20712;DHT22;10517;50.742;4.224;2024-02-15T07:47:02;13.60;99.90
20712;DHT22;10517;50.742;4.224;2024-02-15T07:49:28;13.60;99.90
20712;DHT22;10517;50.742;4.224;2024-02-15T07:51:54;13.70;99.90
20712;DHT22;10517;50.742;4.224;2024-02-15T07:54:20;13.80;99.90
20712;DHT22;10517;50.742;4.224;2024-02-15T07:56:48;13.80;99.90
20712;DHT22;10517;50.742;4.224;2024-02-15T07:59:14;13.80;99.90
20712;DHT22;10517;50.742;4.224;2024-02-15T08:01:44;13.80;99.90
20712;DHT22;10517;50.742;4.224;2024-02-15T08:04:15;13.90;99.90
20712;DHT22;10517;50.742;4.224;2024-02-15T08:06:41;13.80;99.90
20712;DHT22;10517;50.742;4.224;2024-02-15T08:09:07;13.80;99.90
20712;DHT22;10517;50.742;4.224;2024-02-15T08:11:37;13.80;99.90
20712;DHT22;10517;50.742;4.224;2024-02-15T08:14:04;13.90;99.90
20712;DHT22;10517;50.742;4.224;2024-02-15T08:16:33;14.00;99.90
20712;DHT22;10517;50.742;4.224;2024-02-15T08:19:00;14.00;99.90
20712;DHT22;10517;50.742;4.224;2024-02-15T08:21:27;14.10;99.90
20712;DHT22;10517;50.742;4.224;2024-02-15T08:23:54;14.20;99.90
20712;DHT22;10517;50.742;4.224;2024-02-15T08:26:21;14.20;99.90
20712;DHT22;10517;50.742;4.224;2024-02-15T08:28:46;14.30;99.90
20712;DHT22;10517;50.742;4.224;2024-02-15T08:31:12;14.30;99.90
20712;DHT22;10517;50.742;4.224;2024-02-15T08:33:40;14.30;99.90
20712;DHT22;10517;50.742;4.224;2024-02-15T08:36:06;14.30;99.90
20712;DHT22;10517;50.742;4.224;2024-02-15T08:38:32;14.30;99.90
20712;DHT22;10517;50.742;4.224;2024-02-15T08:40:59;14.30;99.90
20712;DHT22;10517;50.742;4.224;2024-02-15T08:43:25;14.40;99.90
20712;DHT22;10517;50.742;4.224;2024-02-15T08:45:50;14.40;99.90
20712;DHT22;10517;50.742;4.224;2024-02-15T08:48:17;14.40;99.90
20712;DHT22;10517;50.742;4.224;2024-02-15T08:50:42;14.40;99.90
20712;DHT22;10517;50.742;4.224;2024-02-15T08:53:10;14.50;99.90
20712;DHT22;10517;50.742;4.224;2024-02-15T08:55:36;14.50;99.90
20712;DHT22;10517;50.742;4.224;2024-02-15T08:58:02;14.80;99.90
20712;DHT22;10517;50.742;4.224;2024-02-15T09:00:28;14.80;99.90
20712;DHT22;10517;50.742;4.224;2024-02-15T09:02:54;14.70;99.90
20712;DHT22;10517;50.742;4.224;2024-02-15T09:05:20;14.70;99.90
20712;DHT22;10517;50.742;4.224;2024-02-15T09:07:47;14.70;99.90
20712;DHT22;10517;50.742;4.224;2024-02-15T09:10:14;14.90;99.90
20712;DHT22;10517;50.742;4.224;2024-02-15T09:12:43;15.00;99.90
20712;DHT22;10517;50.742;4.224;2024-02-15T09:15:10;15.00;99.90
20712;DHT22;10517;50.742;4.224;2024-02-15T09:17:41;15.10;99.90
20712;DHT22;10517;50.742;4.224;2024-02-15T09:20:08;15.20;99.90
20712;DHT22;10517;50.742;4.224;2024-02-15T09:22:34;15.30;99.90
20712;DHT22;10517;50.742;4.224;2024-02-15T09:25:02;15.30;99.90
20712;DHT22;10517;50.742;4.224;2024-02-15T09:27:28;15.60;99.90
20712;DHT22;10517;50.742;4.224;2024-02-15T09:29:53;15.80;99.90
20712;DHT22;10517;50.742;4.224;2024-02-15T09:32:21;16.00;99.90
20712;DHT22;10517;50.742;4.224;2024-02-15T09:34:48;16.10;99.90
20712;DHT22;10517;50.742;4.224;2024-02-15T09:37:14;16.20;99.90
20712;DHT22;10517;50.742;4.224;2024-02-15T09:39:40;16.40;99.90
20712;DHT22;10517;50.742;4.224;2024-02-15T09:42:05;16.40;99.90
20712;DHT22;10517;50.742;4.224;2024-02-15T09:44:31;16.40;99.90
20712;DHT22;10517;50.742;4.224;2024-02-15T09:47:03;16.40;99.90
20712;DHT22;10517;50.742;4.224;2024-02-15T09:49:38;16.30;99.90
20712;DHT22;10517;50.742;4.224;2024-02-15T09:52:06;16.20;99.90
20712;DHT22;10517;50.742;4.224;2024-02-15T09:54:39;16.30;99.90
20712;DHT22;10517;50.742;4.224;2024-02-15T09:57:08;16.30;99.90
20712;DHT22;10517;50.742;4.224;2024-02-15T09:59:33;16.20;99.90
20712;DHT22;10517;50.742;4.224;2024-02-15T10:02:01;16.00;99.90
20712;DHT22;10517;50.742;4.224;2024-02-15T10:04:27;16.00;99.90
20712;DHT22;10517;50.742;4.224;2024-02-15T10:06:53;15.90;99.90
20712;DHT22;10517;50.742;4.224;2024-02-15T10:09:29;15.90;99.90
20712;DHT22;10517;50.742;4.224;2024-02-15T10:11:59;15.90;99.90
20712;DHT22;10517;50.742;4.224;2024-02-15T10:14:26;16.00;99.90
20712;DHT22;10517;50.742;4.224;2024-02-15T10:16:56;16.30;99.90
20712;DHT22;10517;50.742;4.224;2024-02-15T10:19:22;16.30;99.90
20712;DHT22;10517;50.742;4.224;2024-02-15T10:21:53;16.40;99.90
20712;DHT22;10517;50.742;4.224;2024-02-15T10:24:23;16.50;99.90
20712;DHT22;10517;50.742;4.224;2024-02-15T10:27:03;16.50;99.90
20712;DHT22;10517;50.742;4.224;2024-02-15T10:29:30;16.60;99.90
20712;DHT22;10517;50.742;4.224;2024-02-15T10:32:00;16.80;99.90
20712;DHT22;10517;50.742;4.224;2024-02-15T10:34:27;16.90;99.90
20712;DHT22;10517;50.742;4.224;2024-02-15T10:36:53;17.00;99.90
20712;DHT22;10517;50.742;4.224;2024-02-15T10:39:22;17.00;99.90
20712;DHT22;10517;50.742;4.224;2024-02-15T10:41:53;17.10;99.90
20712;DHT22;10517;50.742;4.224;2024-02-15T10:44:24;17.30;99.90
20712;DHT22;10517;50.742;4.224;2024-02-15T10:46:51;17.20;99.90
20712;DHT22;10517;50.742;4.224;2024-02-15T10:49:24;16.90;99.90
20712;DHT22;10517;50.742;4.224;2024-02-15T10:52:01;16.80;99.90
20712;DHT22;10517;50.742;4.224;2024-02-15T10:54:52;16.80;99.90
20712;DHT22;10517;50.742;4.224;2024-02-15T10:57:21;16.70;99.90
20712;DHT22;10517;50.742;4.224;2024-02-15T10:59:56;16.80;99.90
20712;DHT22;10517;50.742;4.224;2024-02-15T11:02:34;16.90;99.90
20712;DHT22;10517;50.742;4.224;2024-02-15T11:05:06;17.20;99.90
20712;DHT22;10517;50.742;4.224;2024-02-15T11:07:40;17.20;99.90
20712;DHT22;10517;50.742;4.224;2024-02-15T11:10:07;17.30;99.90
20712;DHT22;10517;50.742;4.224;2024-02-15T11:12:36;17.50;99.90
20712;DHT22;10517;50.742;4.224;2024-02-15T11:15:02;17.50;99.90
20712;DHT22;10517;50.742;4.224;2024-02-15T11:23:00;17.80;99.90
20712;DHT22;10517;50.742;4.224;2024-02-15T11:25:38;17.70;99.90
20712;DHT22;10517;50.742;4.224;2024-02-15T11:30:55;17.90;99.90
20712;DHT22;10517;50.742;4.224;2024-02-15T11:33:29;17.80;99.90
20712;DHT22;10517;50.742;4.224;2024-02-15T11:36:11;17.90;99.90
20712;DHT22;10517;50.742;4.224;2024-02-15T11:38:38;18.00;99.90
20712;DHT22;10517;50.742;4.224;2024-02-15T11:41:07;18.10;99.90
20712;DHT22;10517;50.742;4.224;2024-02-15T11:46:09;17.90;99.90
20712;DHT22;10517;50.742;4.224;2024-02-15T11:48:38;17.80;99.90
20712;DHT22;10517;50.742;4.224;2024-02-15T11:51:07;18.00;99.90
20712;DHT22;10517;50.742;4.224;2024-02-15T11:53:37;18.00;99.90
20712;DHT22;10517;50.742;4.224;2024-02-15T11:56:03;18.00;99.90
20712;DHT22;10517;50.742;4.224;2024-02-15T11:58:30;17.80;99.90
20712;DHT22;10517;50.742;4.224;2024-02-15T12:01:11;17.80;99.90
20712;DHT22;10517;50.742;4.224;2024-02-15T12:03:55;18.00;99.90
20712;DHT22;10517;50.742;4.224;2024-02-15T12:06:39;18.10;99.90
20712;DHT22;10517;50.742;4.224;2024-02-15T12:09:23;18.20;99.90
20712;DHT22;10517;50.742;4.224;2024-02-15T12:12:09;18.00;99.90
20712;DHT22;10517;50.742;4.224;2024-02-15T12:15:00;17.90;99.90
20712;DHT22;10517;50.742;4.224;2024-02-15T12:17:45;17.80;99.90
20712;DHT22;10517;50.742;4.224;2024-02-15T12:20:29;17.60;99.90
20712;DHT22;10517;50.742;4.224;2024-02-15T12:22:55;17.60;99.90
20712;DHT22;10517;50.742;4.224;2024-02-15T12:25:21;17.70;99.90
20712;DHT22;10517;50.742;4.224;2024-02-15T12:27:53;18.00;99.90
20712;DHT22;10517;50.742;4.224;2024-02-15T12:30:19;18.30;99.90
20712;DHT22;10517;50.742;4.224;2024-02-15T12:32:51;18.60;99.90
20712;DHT22;10517;50.742;4.224;2024-02-15T12:35:19;18.70;99.90
20712;DHT22;10517;50.742;4.224;2024-02-15T12:37:49;18.90;99.90
20712;DHT22;10517;50.742;4.224;2024-02-15T12:40:38;19.00;99.90
20712;DHT22;10517;50.742;4.224;2024-02-15T12:43:07;19.00;99.90
20712;DHT22;10517;50.742;4.224;2024-02-15T12:45:38;19.10;99.90
20712;DHT22;10517;50.742;4.224;2024-02-15T12:48:05;19.10;99.90
20712;DHT22;10517;50.742;4.224;2024-02-15T12:50:31;19.10;99.90
20712;DHT22;10517;50.742;4.224;2024-02-15T12:52:57;19.10;99.90
20712;DHT22;10517;50.742;4.224;2024-02-15T12:55:36;19.00;99.90
20712;DHT22;10517;50.742;4.224;2024-02-15T12:58:09;18.80;99.90
20712;DHT22;10517;50.742;4.224;2024-02-15T13:00:39;18.80;99.90
20712;DHT22;10517;50.742;4.224;2024-02-15T13:03:06;19.10;99.90
20712;DHT22;10517;50.742;4.224;2024-02-15T13:05:37;19.30;99.90
20712;DHT22;10517;50.742;4.224;2024-02-15T13:08:03;19.40;99.90
20712;DHT22;10517;50.742;4.224;2024-02-15T13:10:36;19.30;99.90
20712;DHT22;10517;50.742;4.224;2024-02-15T13:13:02;19.50;99.90
20712;DHT22;10517;50.742;4.224;2024-02-15T13:15:27;19.60;99.90
20712;DHT22;10517;50.742;4.224;2024-02-15T13:17:58;19.60;99.90
20712;DHT22;10517;50.742;4.224;2024-02-15T13:20:24;19.50;99.90
20712;DHT22;10517;50.742;4.224;2024-02-15T13:22:58;19.30;99.90
20712;DHT22;10517;50.742;4.224;2024-02-15T13:25:44;19.30;99.90
20712;DHT22;10517;50.742;4.224;2024-02-15T13:28:11;19.60;99.90
20712;DHT22;10517;50.742;4.224;2024-02-15T13:30:38;20.00;99.90
20712;DHT22;10517;50.742;4.224;2024-02-15T13:33:04;20.40;99.90
20712;DHT22;10517;50.742;4.224;2024-02-15T13:35:30;20.50;99.90
20712;DHT22;10517;50.742;4.224;2024-02-15T13:37:56;20.40;99.90
20712;DHT22;10517;50.742;4.224;2024-02-15T13:40:26;20.00;99.90
20712;DHT22;10517;50.742;4.224;2024-02-15T13:42:54;19.90;99.90
20712;DHT22;10517;50.742;4.224;2024-02-15T13:45:24;19.90;99.90
20712;DHT22;10517;50.742;4.224;2024-02-15T13:47:56;19.70;99.90
20712;DHT22;10517;50.742;4.224;2024-02-15T13:50:22;19.70;99.90
20712;DHT22;10517;50.742;4.224;2024-02-15T13:52:49;19.40;99.90
20712;DHT22;10517;50.742;4.224;2024-02-15T13:55:18;19.20;99.90
20712;DHT22;10517;50.742;4.224;2024-02-15T13:57:47;18.90;99.90
20712;DHT22;10517;50.742;4.224;2024-02-15T14:00:16;18.80;99.90
20712;DHT22;10517;50.742;4.224;2024-02-15T14:02:52;18.70;99.90
20712;DHT22;10517;50.742;4.224;2024-02-15T14:05:26;18.60;99.90
20712;DHT22;10517;50.742;4.224;2024-02-15T14:07:56;18.70;99.90
20712;DHT22;10517;50.742;4.224;2024-02-15T14:10:23;18.60;99.90
20712;DHT22;10517;50.742;4.224;2024-02-15T14:12:50;18.50;99.90
20712;DHT22;10517;50.742;4.224;2024-02-15T14:15:35;18.40;99.90
20712;DHT22;10517;50.742;4.224;2024-02-15T14:18:08;18.30;99.90
20712;DHT22;10517;50.742;4.224;2024-02-15T14:20:39;18.30;99.90
20712;DHT22;10517;50.742;4.224;2024-02-15T14:23:04;18.20;99.90
20712;DHT22;10517;50.742;4.224;2024-02-15T14:25:32;18.30;99.90
20712;DHT22;10517;50.742;4.224;2024-02-15T14:27:58;18.20;99.90
20712;DHT22;10517;50.742;4.224;2024-02-15T14:30:24;18.30;99.90
20712;DHT22;10517;50.742;4.224;2024-02-15T14:33:08;18.30;99.90
20712;DHT22;10517;50.742;4.224;2024-02-15T14:35:37;18.20;99.90
20712;DHT22;10517;50.742;4.224;2024-02-15T14:38:06;18.30;99.90
20712;DHT22;10517;50.742;4.224;2024-02-15T14:40:35;18.50;99.90
20712;DHT22;10517;50.742;4.224;2024-02-15T14:43:01;18.60;99.90
20712;DHT22;10517;50.742;4.224;2024-02-15T14:45:28;18.60;99.90
20712;DHT22;10517;50.742;4.224;2024-02-15T14:47:54;18.70;99.90
20712;DHT22;10517;50.742;4.224;2024-02-15T14:50:19;18.70;99.90
20712;DHT22;10517;50.742;4.224;2024-02-15T14:52:46;18.60;99.90
20712;DHT22;10517;50.742;4.224;2024-02-15T14:55:13;18.50;99.90
20712;DHT22;10517;50.742;4.224;2024-02-15T14:57:39;18.40;99.90
20712;DHT22;10517;50.742;4.224;2024-02-15T15:00:08;18.40;99.90
20712;DHT22;10517;50.742;4.224;2024-02-15T15:02:37;18.40;99.90
20712;DHT22;10517;50.742;4.224;2024-02-15T15:05:02;18.50;99.90
20712;DHT22;10517;50.742;4.224;2024-02-15T15:07:46;18.60;99.90
20712;DHT22;10517;50.742;4.224;2024-02-15T15:10:30;18.80;99.90
20712;DHT22;10517;50.742;4.224;2024-02-15T15:13:14;18.90;99.90
20712;DHT22;10517;50.742;4.224;2024-02-15T15:15:40;19.00;99.90
20712;DHT22;10517;50.742;4.224;2024-02-15T15:18:06;19.10;99.90
20712;DHT22;10517;50.742;4.224;2024-02-15T15:20:33;19.20;99.90
20712;DHT22;10517;50.742;4.224;2024-02-15T15:23:00;19.10;99.90
20712;DHT22;10517;50.742;4.224;2024-02-15T15:25:26;18.90;99.90
20712;DHT22;10517;50.742;4.224;2024-02-15T15:27:54;18.90;99.90
20712;DHT22;10517;50.742;4.224;2024-02-15T15:30:20;18.80;99.90
20712;DHT22;10517;50.742;4.224;2024-02-15T15:32:46;18.80;99.90
20712;DHT22;10517;50.742;4.224;2024-02-15T15:35:12;18.40;99.90
20712;DHT22;10517;50.742;4.224;2024-02-15T15:37:38;18.40;99.90
20712;DHT22;10517;50.742;4.224;2024-02-15T15:40:04;18.20;99.90
20712;DHT22;10517;50.742;4.224;2024-02-15T15:42:34;18.00;99.90
20712;DHT22;10517;50.742;4.224;2024-02-15T15:45:01;18.00;99.90
20712;DHT22;10517;50.742;4.224;2024-02-15T15:47:27;17.80;99.90